Tuesday, November 21, 2017, 10:57 PM EST
Back to Local

KMTP, Montauk Airport

Location: Montauk, NY, United States Lat: 41.067
Local Time: 10:57 PM EST ( 3:57 GMT) Lon: -71.917
Time Zone: US/Eastern Elev: 6 ft

Show me the last for .
Show Coded

Time T Td Feel RH Dir Speed Gust Alt SLP Vis Weather Sky Remarks
2017-11-21 20:54 58 49 - 71 230° 9 - 30.08 30.08 0 None
2017-11-21 19:54 58 47 - 66 220° 13 26 30.07 30.07 0 None
2017-11-21 18:54 57 45 - 63 210° 13 23 30.07 30.06 0 6-hr Min Temp (7pm): 55.9°F
6-hr Max Temp (7pm): 57.9°F
2017-11-21 17:54 56 46 - 69 210° 12 20 30.07 30.07 0 None
2017-11-21 16:54 56 43 - 61 210° 13 22 30.06 30.06 0 None
2017-11-21 15:54 56 41 - 57 220° 10 21 30.08 30.08 0 None
2017-11-21 14:54 57 42 - 57 220° 13 23 30.09 30.09 0 Peak wind: 31 mph (27 kts) from 210° at 13 min
2017-11-21 13:54 57 41 - 54 210° 13 28 30.08 30.08 0 None
2017-11-21 12:54 58 39 - 49 210° 14 25 30.11 30.11 0 6-hr Min Temp (1pm): 48.9°F
6-hr Max Temp (1pm): 59.0°F
2017-11-21 11:54 58 39 - 49 220° 14 28 30.13 30.13 0 None
2017-11-21 10:54 58 39 - 49 210° 13 23 30.16 30.16 0 None
2017-11-21 09:54 57 38 - 48 220° 13 22 30.17 30.17 0 None
2017-11-21 08:54 56 37 - 48 240° 14 25 30.17 30.17 0 None
2017-11-21 07:54 51 39 - 63 240° 6 - 30.17 30.17 0 None
2017-11-21 06:54 49 36 46 60 240° 7 - 30.16 30.15 0 6-hr Min Temp (7am): 46.0°F
6-hr Max Temp (7am): 48.9°F
2017-11-21 05:54 49 35 43 58 240° 8 16 30.15 30.15 0 None
2017-11-21 04:54 48 34 45 58 230° 6 - 30.15 30.14 0 None
2017-11-21 03:54 47 33 43 58 240° 9 - 30.15 30.14 0 None
2017-11-21 02:54 47 32 43 55 240° 8 - 30.14 30.14 0 None
2017-11-21 01:54 46 29 38 51 240° 12 20 30.15 30.15 0 None
2017-11-21 00:54 46 28 42 49 240° 8 - 30.14 30.14 0 6-hr Min Temp (1am): 44.1°F
6-hr Max Temp (1am): 46.0°F
2017-11-20 23:54 45 29 41 53 240° 8 - 30.14 30.14 0 24-hr Min Temp (12am): 39.9°F
24-hr Max Temp (12am): 46.0°F

Support USWX by starting your Amazon purchase here.